Time;durP1;ratioP1;P1;durP2;ratioP2;P2;SDS_P1;SDS_P2;PMS_P1;PMS_P2;Temp;Humidity;BMP_temperature;BMP_pressure;BME280_temperature;BME280_humidity;BME280_pressure;Samples;Min_cycle;Max_cycle;Signal;HPM_P1;HPM_P2
2022/03/05 00:02:08;;;;;;;15.80;9.00;;;;;;;;;;5088927;28;20040;-62
2022/03/05 00:04:34;;;;;;;13.18;7.75;;;;;;;;;;5089192;28;20123;-62
2022/03/05 00:07:00;;;;;;;13.70;8.02;;;;;;;;;;5068461;28;20047;-62
2022/03/05 00:09:26;;;;;;;15.77;7.95;;;;;;;;;;5088652;28;20087;-62
2022/03/05 00:11:52;;;;;;;15.43;8.38;;;;;;;;;;5082292;28;20370;-62
2022/03/05 00:14:18;;;;;;;14.05;8.38;;;;;;;;;;5086674;28;20055;-62
2022/03/05 00:16:44;;;;;;;13.35;7.72;;;;;;;;;;5087862;28;20044;-62
2022/03/05 00:19:10;;;;;;;14.38;8.10;;;;;;;;;;5070437;28;20502;-62
2022/03/05 00:21:37;;;;;;;16.40;8.23;;;;;;;;;;5086587;28;20036;-62
2022/03/05 00:24:03;;;;;;;15.90;8.82;;;;;;;;;;5068482;28;20128;-62
2022/03/05 00:26:29;;;;;;;14.50;8.38;;;;;;;;;;5085923;28;20048;-62
2022/03/05 00:28:55;;;;;;;14.82;7.40;;;;;;;;;;5088228;28;20036;-62
2022/03/05 00:31:21;;;;;;;19.10;7.82;;;;;;;;;;5088654;28;20083;-63
2022/03/05 00:33:47;;;;;;;16.42;8.73;;;;;;;;;;5079976;28;20074;-62
2022/03/05 00:36:13;;;;;;;16.38;8.60;;;;;;;;;;5088505;28;20452;-62
2022/03/05 00:38:39;;;;;;;15.60;8.50;;;;;;;;;;5086516;28;20043;-62
2022/03/05 00:41:05;;;;;;;15.95;7.63;;;;;;;;;;5070553;28;20048;-62
2022/03/05 00:43:31;;;;;;;14.23;7.88;;;;;;;;;;5087656;28;20090;-63
2022/03/05 00:45:58;;;;;;;14.93;8.48;;;;;;;;;;5085224;28;20208;-62
2022/03/05 00:48:24;;;;;;;14.98;9.25;;;;;;;;;;5087330;28;20073;-63
2022/03/05 00:50:50;;;;;;;14.55;8.38;;;;;;;;;;5088988;28;20035;-62
2022/03/05 00:53:17;;;;;;;17.05;8.70;;;;;;;;;;5066663;28;20046;-63
2022/03/05 00:55:44;;;;;;;14.55;8.15;;;;;;;;;;5088420;28;20063;-63
2022/03/05 00:58:10;;;;;;;16.77;9.60;;;;;;;;;;5068112;28;20051;-62
2022/03/05 01:00:36;;;;;;;13.40;7.93;;;;;;;;;;5086548;28;20381;-63
2022/03/05 01:03:03;;;;;;;15.88;8.55;;;;;;;;;;5087899;28;20117;-62
2022/03/05 01:05:29;;;;;;;14.63;7.82;;;;;;;;;;5064782;28;20507;-62
2022/03/05 01:07:55;;;;;;;16.58;8.65;;;;;;;;;;5069838;28;20058;-63
2022/03/05 01:10:21;;;;;;;14.23;8.85;;;;;;;;;;5087873;28;21669;-62
2022/03/05 01:12:47;;;;;;;18.25;8.50;;;;;;;;;;5048339;28;20400;-62
2022/03/05 01:15:13;;;;;;;17.83;9.63;;;;;;;;;;5069694;28;20044;-62
2022/03/05 01:17:39;;;;;;;13.68;8.18;;;;;;;;;;5068974;28;20036;-62
2022/03/05 01:20:06;;;;;;;16.27;9.63;;;;;;;;;;5084250;28;20377;-62
2022/03/05 01:22:32;;;;;;;17.67;9.18;;;;;;;;;;5068280;28;20040;-62
2022/03/05 01:24:59;;;;;;;15.68;8.38;;;;;;;;;;5069463;28;20040;-62
2022/03/05 01:27:25;;;;;;;16.83;9.13;;;;;;;;;;5086430;28;20075;-63
2022/03/05 01:29:51;;;;;;;15.43;8.45;;;;;;;;;;5086411;28;20050;-62
2022/03/05 01:32:17;;;;;;;16.23;8.88;;;;;;;;;;5088050;28;20066;-62
2022/03/05 01:34:43;;;;;;;15.55;8.60;;;;;;;;;;5068585;28;20127;-62
2022/03/05 01:37:10;;;;;;;15.52;8.60;;;;;;;;;;5066661;28;20467;-62
2022/03/05 01:39:36;;;;;;;14.85;8.10;;;;;;;;;;5088114;28;20078;-62
2022/03/05 01:42:02;;;;;;;14.00;8.35;;;;;;;;;;5083142;28;20036;-62
2022/03/05 01:44:28;;;;;;;16.73;8.73;;;;;;;;;;5087582;28;20455;-62
2022/03/05 01:46:54;;;;;;;16.38;8.90;;;;;;;;;;5085232;28;20040;-62
2022/03/05 01:49:21;;;;;;;19.52;7.95;;;;;;;;;;5085657;28;20075;-63
2022/03/05 01:51:47;;;;;;;17.02;8.77;;;;;;;;;;5087300;28;20077;-62
2022/03/05 01:54:13;;;;;;;15.63;9.07;;;;;;;;;;5087253;28;20093;-62
2022/03/05 01:56:40;;;;;;;14.68;8.80;;;;;;;;;;5067504;28;20475;-62
2022/03/05 01:59:06;;;;;;;16.52;8.70;;;;;;;;;;5086503;28;20091;-62
2022/03/05 02:01:33;;;;;;;15.10;8.02;;;;;;;;;;5084678;28;20389;-62
2022/03/05 02:04:00;;;;;;;19.88;9.95;;;;;;;;;;5086763;28;20028;-62
2022/03/05 02:06:26;;;;;;;17.25;8.43;;;;;;;;;;5087784;28;20113;-62
2022/03/05 02:08:52;;;;;;;17.45;9.07;;;;;;;;;;5066535;28;20048;-62
2022/03/05 02:11:18;;;;;;;15.50;8.23;;;;;;;;;;5085411;28;20370;-63
2022/03/05 02:13:45;;;;;;;15.50;8.48;;;;;;;;;;5084317;28;20045;-62
2022/03/05 02:16:11;;;;;;;19.63;8.43;;;;;;;;;;5085992;28;20043;-62
2022/03/05 02:18:37;;;;;;;15.70;7.25;;;;;;;;;;5068950;28;20040;-62
2022/03/05 02:21:04;;;;;;;14.90;7.82;;;;;;;;;;5065457;28;20035;-62
2022/03/05 02:23:30;;;;;;;13.88;7.50;;;;;;;;;;5084260;28;20072;-62
2022/03/05 02:25:57;;;;;;;15.40;7.88;;;;;;;;;;5067317;28;20036;-62
2022/03/05 02:28:24;;;;;;;15.68;8.07;;;;;;;;;;5084297;28;20047;-62
2022/03/05 02:30:50;;;;;;;13.68;8.05;;;;;;;;;;5086034;28;20484;-62
2022/03/05 02:33:17;;;;;;;14.88;8.15;;;;;;;;;;5065278;28;20048;-62
2022/03/05 02:35:44;;;;;;;15.50;8.30;;;;;;;;;;5069036;28;20106;-62
2022/03/05 02:38:12;;;;;;;17.60;7.82;;;;;;;;;;5086777;28;20040;-62
2022/03/05 02:40:39;;;;;;;13.93;7.40;;;;;;;;;;5085793;28;20105;-62
2022/03/05 02:43:05;;;;;;;14.88;7.18;;;;;;;;;;5086229;28;20340;-62
2022/03/05 02:45:32;;;;;;;15.15;7.93;;;;;;;;;;5067807;28;20083;-62
2022/03/05 02:47:58;;;;;;;13.50;7.47;;;;;;;;;;5084329;28;20050;-62
2022/03/05 02:50:24;;;;;;;15.82;7.65;;;;;;;;;;5068254;28;20362;-63
2022/03/05 02:52:50;;;;;;;15.30;7.57;;;;;;;;;;5085440;28;20088;-62
2022/03/05 02:55:16;;;;;;;14.20;7.90;;;;;;;;;;5083592;28;20474;-62
2022/03/05 02:57:42;;;;;;;13.65;7.35;;;;;;;;;;5085808;28;20067;-63
2022/03/05 03:00:09;;;;;;;13.10;6.95;;;;;;;;;;5064770;28;20369;-62
2022/03/05 03:02:35;;;;;;;17.05;7.53;;;;;;;;;;5068161;28;20551;-62
2022/03/05 03:05:01;;;;;;;14.23;7.45;;;;;;;;;;5090119;28;20036;-62
2022/03/05 03:07:27;;;;;;;15.77;7.95;;;;;;;;;;5086558;28;20036;-62
2022/03/05 03:09:53;;;;;;;15.85;7.97;;;;;;;;;;5072825;28;20674;-62
2022/03/05 03:12:19;;;;;;;15.27;7.30;;;;;;;;;;5089615;28;20322;-62
2022/03/05 03:14:46;;;;;;;17.50;7.80;;;;;;;;;;5069118;28;20044;-62
2022/03/05 03:17:12;;;;;;;13.45;7.90;;;;;;;;;;5071412;28;20040;-62
2022/03/05 03:19:38;;;;;;;15.25;7.75;;;;;;;;;;5069877;28;20052;-62
2022/03/05 03:22:04;;;;;;;13.00;6.82;;;;;;;;;;5090137;28;20403;-62
2022/03/05 03:24:30;;;;;;;13.80;7.57;;;;;;;;;;5071129;28;20048;-62
2022/03/05 03:26:56;;;;;;;15.75;8.10;;;;;;;;;;5087428;28;20120;-62
2022/03/05 03:29:23;;;;;;;13.50;7.05;;;;;;;;;;5070271;28;20085;-63
2022/03/05 03:31:49;;;;;;;15.88;7.95;;;;;;;;;;5089730;28;20537;-62
2022/03/05 03:34:15;;;;;;;13.70;7.80;;;;;;;;;;5089832;28;20055;-62
2022/03/05 03:36:41;;;;;;;18.00;8.05;;;;;;;;;;5069628;28;20052;-62
2022/03/05 03:39:07;;;;;;;15.05;7.80;;;;;;;;;;5082784;28;20043;-62
2022/03/05 03:41:33;;;;;;;14.50;7.95;;;;;;;;;;5089596;28;20048;-62
2022/03/05 03:43:59;;;;;;;14.02;6.88;;;;;;;;;;5088417;28;20369;-62
2022/03/05 03:46:25;;;;;;;14.80;7.35;;;;;;;;;;5069007;28;20559;-63
2022/03/05 03:48:51;;;;;;;16.02;8.48;;;;;;;;;;5087961;28;20040;-62
2022/03/05 03:51:17;;;;;;;14.13;8.02;;;;;;;;;;5090391;28;20411;-62
2022/03/05 03:53:43;;;;;;;14.93;8.20;;;;;;;;;;5068812;28;20097;-62
2022/03/05 03:56:10;;;;;;;13.98;7.85;;;;;;;;;;5087978;28;20113;-62
2022/03/05 03:58:36;;;;;;;16.08;8.07;;;;;;;;;;5088784;28;20047;-62
2022/03/05 04:01:02;;;;;;;14.38;7.78;;;;;;;;;;5068950;28;20047;-62
2022/03/05 04:03:28;;;;;;;16.35;7.85;;;;;;;;;;5086777;28;20404;-62
2022/03/05 04:05:54;;;;;;;20.02;8.98;;;;;;;;;;5070366;28;20048;-62
2022/03/05 04:11:05;;;;;;;16.65;7.72;;;;;;;;;;5082637;28;20056;-62
2022/03/05 04:13:31;;;;;;;22.92;10.10;;;;;;;;;;5089010;28;20040;-62
2022/03/05 04:15:57;;;;;;;16.02;8.20;;;;;;;;;;5088627;28;20044;-62
2022/03/05 04:18:23;;;;;;;14.73;7.80;;;;;;;;;;5084034;28;20043;-62
2022/03/05 04:20:49;;;;;;;15.23;8.45;;;;;;;;;;5089255;28;20036;-62
2022/03/05 04:23:15;;;;;;;16.13;7.40;;;;;;;;;;5088300;28;20108;-62
2022/03/05 04:25:42;;;;;;;13.43;7.57;;;;;;;;;;5083530;28;20403;-62
2022/03/05 04:28:08;;;;;;;16.60;8.20;;;;;;;;;;5069795;28;20433;-62
2022/03/05 04:30:34;;;;;;;14.20;8.25;;;;;;;;;;5071160;28;20135;-62
2022/03/05 04:33:00;;;;;;;14.95;7.95;;;;;;;;;;5086801;28;20121;-63
2022/03/05 04:35:26;;;;;;;12.90;8.43;;;;;;;;;;5088113;28;20040;-62
2022/03/05 04:37:53;;;;;;;14.73;8.13;;;;;;;;;;5070480;28;20052;-62
2022/03/05 04:40:19;;;;;;;16.60;8.73;;;;;;;;;;5067803;28;20052;-62
2022/03/05 04:42:45;;;;;;;18.92;8.45;;;;;;;;;;5070818;28;20481;-62
2022/03/05 04:45:12;;;;;;;16.80;7.70;;;;;;;;;;5067542;28;20197;-62
2022/03/05 04:47:39;;;;;;;14.98;7.07;;;;;;;;;;5069396;28;20048;-62
2022/03/05 04:50:06;;;;;;;18.70;8.10;;;;;;;;;;5068696;28;20083;-62
2022/03/05 04:52:32;;;;;;;16.13;8.93;;;;;;;;;;5084968;28;20506;-62
2022/03/05 04:54:58;;;;;;;14.73;8.05;;;;;;;;;;5088843;28;20040;-62
2022/03/05 04:57:25;;;;;;;16.48;8.98;;;;;;;;;;5083077;28;20060;-62
2022/03/05 04:59:51;;;;;;;16.63;9.27;;;;;;;;;;5082241;28;20445;-62
2022/03/05 05:02:18;;;;;;;17.20;8.60;;;;;;;;;;5087745;28;20039;-62
2022/03/05 05:04:44;;;;;;;14.80;7.75;;;;;;;;;;5069507;28;20090;-62
2022/03/05 05:07:10;;;;;;;16.17;8.55;;;;;;;;;;5084568;28;20047;-62
2022/03/05 05:09:37;;;;;;;16.45;9.10;;;;;;;;;;5088489;28;20072;-62
2022/03/05 05:12:05;;;;;;;20.90;8.48;;;;;;;;;;5085652;28;20460;-62
2022/03/05 05:14:31;;;;;;;14.73;7.45;;;;;;;;;;5068874;28;20106;-62
2022/03/05 05:16:57;;;;;;;13.32;7.38;;;;;;;;;;5087386;28;20040;-62
2022/03/05 05:19:24;;;;;;;18.08;8.10;;;;;;;;;;5084657;28;20032;-62
2022/03/05 05:21:51;;;;;;;16.75;8.70;;;;;;;;;;5086407;28;20064;-62
2022/03/05 05:24:17;;;;;;;19.85;8.30;;;;;;;;;;5088323;28;20118;-62
2022/03/05 05:26:43;;;;;;;15.90;8.68;;;;;;;;;;5069002;28;20432;-62
2022/03/05 05:29:10;;;;;;;15.73;8.48;;;;;;;;;;5086330;28;20487;-62
2022/03/05 05:31:36;;;;;;;16.52;8.55;;;;;;;;;;5084984;28;20484;-62
2022/03/05 05:34:03;;;;;;;17.50;8.48;;;;;;;;;;5087359;28;20124;-62
2022/03/05 05:36:29;;;;;;;18.27;8.75;;;;;;;;;;5087414;28;20094;-62
2022/03/05 05:38:55;;;;;;;16.70;8.68;;;;;;;;;;5086421;28;20108;-62
2022/03/05 05:41:22;;;;;;;15.25;8.75;;;;;;;;;;5069122;28;20427;-62
2022/03/05 05:43:48;;;;;;;14.70;7.82;;;;;;;;;;5069952;28;20629;-62
2022/03/05 05:46:14;;;;;;;17.27;8.85;;;;;;;;;;5080224;28;20503;-63
2022/03/05 05:48:40;;;;;;;17.10;8.90;;;;;;;;;;5050354;28;20101;-62
2022/03/05 05:51:06;;;;;;;15.65;8.90;;;;;;;;;;5086594;28;20032;-62
2022/03/05 05:53:32;;;;;;;15.60;9.05;;;;;;;;;;5068356;28;20048;-62
2022/03/05 05:55:59;;;;;;;14.88;7.50;;;;;;;;;;5067911;28;20044;-62
2022/03/05 05:58:25;;;;;;;16.00;8.35;;;;;;;;;;5087809;28;20055;-62
2022/03/05 06:00:51;;;;;;;15.02;8.00;;;;;;;;;;5068169;28;20376;-62
2022/03/05 06:03:17;;;;;;;18.40;8.60;;;;;;;;;;5086059;28;20502;-62
2022/03/05 06:05:43;;;;;;;16.77;8.95;;;;;;;;;;5069949;28;20379;-62
2022/03/05 06:08:09;;;;;;;16.98;8.70;;;;;;;;;;5084550;28;20060;-62
2022/03/05 06:10:36;;;;;;;15.57;8.25;;;;;;;;;;5086921;28;20076;-62
2022/03/05 06:13:02;;;;;;;18.50;7.95;;;;;;;;;;5084677;28;20042;-62
2022/03/05 06:15:28;;;;;;;15.68;8.50;;;;;;;;;;5086172;28;20089;-62
2022/03/05 06:17:56;;;;;;;14.18;7.05;;;;;;;;;;5085427;28;20080;-62
2022/03/05 06:20:22;;;;;;;15.80;7.75;;;;;;;;;;5084379;28;20052;-62
2022/03/05 06:22:49;;;;;;;17.95;8.57;;;;;;;;;;5087388;28;20471;-62
2022/03/05 06:25:17;;;;;;;14.95;7.72;;;;;;;;;;5086039;28;20052;-62
2022/03/05 06:27:44;;;;;;;15.20;7.43;;;;;;;;;;5066690;28;20460;-62
2022/03/05 06:30:11;;;;;;;13.95;7.30;;;;;;;;;;5086066;28;20040;-62
2022/03/05 06:32:37;;;;;;;17.30;8.07;;;;;;;;;;5068002;28;20068;-62
2022/03/05 06:35:05;;;;;;;13.45;6.88;;;;;;;;;;5084637;28;20245;-62
2022/03/05 06:37:31;;;;;;;13.43;7.40;;;;;;;;;;5068288;28;20162;-62
2022/03/05 06:39:57;;;;;;;14.20;6.95;;;;;;;;;;5086835;28;20055;-62
2022/03/05 06:42:23;;;;;;;19.67;8.75;;;;;;;;;;5091714;28;20028;-62
2022/03/05 06:44:50;;;;;;;12.88;7.32;;;;;;;;;;5089649;28;20075;-62
2022/03/05 06:47:17;;;;;;;13.95;7.03;;;;;;;;;;5070193;28;20074;-62
2022/03/05 06:49:43;;;;;;;13.93;7.63;;;;;;;;;;5090204;28;20063;-62
2022/03/05 06:52:10;;;;;;;15.05;6.53;;;;;;;;;;5090426;28;20036;-62
2022/03/05 06:54:37;;;;;;;19.17;7.18;;;;;;;;;;5087474;28;20161;-62
2022/03/05 06:57:03;;;;;;;12.40;6.97;;;;;;;;;;5072717;28;20059;-62
2022/03/05 06:59:30;;;;;;;14.55;6.88;;;;;;;;;;5069465;28;20127;-62
2022/03/05 07:01:56;;;;;;;14.40;6.90;;;;;;;;;;5090179;28;20535;-62
2022/03/05 07:04:22;;;;;;;14.07;7.13;;;;;;;;;;5090322;28;20044;-62
2022/03/05 07:06:48;;;;;;;15.40;7.10;;;;;;;;;;5069302;28;20052;-62
2022/03/05 07:09:15;;;;;;;15.07;8.20;;;;;;;;;;5091231;28;20043;-62
2022/03/05 07:11:41;;;;;;;17.20;7.03;;;;;;;;;;5089896;28;20087;-62
2022/03/05 07:14:07;;;;;;;13.18;7.00;;;;;;;;;;5069337;28;20102;-62
2022/03/05 07:16:33;;;;;;;16.42;7.88;;;;;;;;;;5089615;28;20063;-62
2022/03/05 07:18:59;;;;;;;14.90;6.68;;;;;;;;;;5086412;28;20040;-62
2022/03/05 07:21:26;;;;;;;14.38;6.30;;;;;;;;;;5089229;28;20222;-62
2022/03/05 07:23:52;;;;;;;14.68;7.10;;;;;;;;;;5089260;28;20040;-62
2022/03/05 07:26:18;;;;;;;11.43;6.20;;;;;;;;;;5087644;28;20127;-62
2022/03/05 07:28:45;;;;;;;14.18;6.90;;;;;;;;;;5071036;28;20048;-62
2022/03/05 07:31:11;;;;;;;14.70;7.38;;;;;;;;;;5090525;28;20032;-62
2022/03/05 07:33:37;;;;;;;14.07;7.20;;;;;;;;;;5086902;28;20051;-62
2022/03/05 07:36:04;;;;;;;13.25;6.97;;;;;;;;;;5089309;28;20463;-62
2022/03/05 07:38:31;;;;;;;13.73;6.82;;;;;;;;;;5088766;28;20116;-62
2022/03/05 07:40:57;;;;;;;13.52;7.05;;;;;;;;;;5087748;28;20481;-62
2022/03/05 07:43:24;;;;;;;10.38;6.00;;;;;;;;;;5089868;28;20047;-62
2022/03/05 07:45:50;;;;;;;12.73;6.72;;;;;;;;;;5099936;28;20087;-62
2022/03/05 07:48:19;;;;;;;16.40;7.38;;;;;;;;;;5086413;28;20036;-62
2022/03/05 07:50:46;;;;;;;14.68;7.57;;;;;;;;;;5071367;28;21168;-62
2022/03/05 07:53:12;;;;;;;13.10;7.28;;;;;;;;;;5086791;28;20093;-62
2022/03/05 07:55:38;;;;;;;14.20;6.32;;;;;;;;;;5089310;28;20055;-62
2022/03/05 07:58:05;;;;;;;18.58;8.52;;;;;;;;;;5089321;28;20139;-62
2022/03/05 08:00:31;;;;;;;16.90;8.07;;;;;;;;;;5068739;28;20143;-62
2022/03/05 08:02:57;;;;;;;13.13;7.18;;;;;;;;;;5088140;28;20475;-62
2022/03/05 08:05:23;;;;;;;16.25;7.25;;;;;;;;;;5077629;28;20125;-63
2022/03/05 08:07:49;;;;;;;14.07;8.30;;;;;;;;;;5089003;28;20123;-62
2022/03/05 08:10:16;;;;;;;15.27;7.82;;;;;;;;;;5088236;28;20040;-63
2022/03/05 08:12:42;;;;;;;16.38;7.45;;;;;;;;;;5068748;28;20044;-62
2022/03/05 08:15:09;;;;;;;16.63;7.93;;;;;;;;;;5089708;28;20197;-63
2022/03/05 08:17:35;;;;;;;16.63;8.25;;;;;;;;;;5069993;28;20368;-62
2022/03/05 08:20:02;;;;;;;13.02;7.35;;;;;;;;;;5067398;28;20105;-62
2022/03/05 08:22:28;;;;;;;15.45;7.40;;;;;;;;;;5070191;28;20046;-62
2022/03/05 08:24:55;;;;;;;13.60;7.75;;;;;;;;;;5088568;28;20055;-62
2022/03/05 08:27:21;;;;;;;19.58;9.00;;;;;;;;;;5085541;28;20436;-62
2022/03/05 08:29:47;;;;;;;14.90;7.93;;;;;;;;;;5087329;28;20127;-62
2022/03/05 08:32:13;;;;;;;19.52;8.75;;;;;;;;;;5086247;28;20545;-62
2022/03/05 08:34:39;;;;;;;19.17;8.68;;;;;;;;;;5081941;28;20036;-62
2022/03/05 08:37:05;;;;;;;17.05;8.80;;;;;;;;;;5087392;28;20129;-62
2022/03/05 08:39:31;;;;;;;16.92;8.68;;;;;;;;;;5085518;28;20049;-62
2022/03/05 08:41:57;;;;;;;15.43;8.35;;;;;;;;;;5069772;28;20535;-62
2022/03/05 08:44:24;;;;;;;13.98;8.18;;;;;;;;;;5086282;28;20479;-62
2022/03/05 08:46:50;;;;;;;17.73;8.43;;;;;;;;;;5066706;28;20036;-62
2022/03/05 08:49:16;;;;;;;19.48;9.18;;;;;;;;;;5070906;28;20104;-62
2022/03/05 08:51:43;;;;;;;18.98;9.20;;;;;;;;;;5084786;28;20044;-63
2022/03/05 08:54:09;;;;;;;19.52;9.27;;;;;;;;;;5087381;28;20483;-62
2022/03/05 08:56:35;;;;;;;18.13;9.75;;;;;;;;;;5067281;28;20036;-62
2022/03/05 08:59:01;;;;;;;21.42;9.90;;;;;;;;;;5066517;28;20096;-63
2022/03/05 09:01:27;;;;;;;16.95;9.30;;;;;;;;;;5087841;28;20196;-62
2022/03/05 09:03:53;;;;;;;18.08;10.32;;;;;;;;;;5088821;28;20040;-63
2022/03/05 09:06:22;;;;;;;19.10;9.60;;;;;;;;;;5086399;28;20502;-63
2022/03/05 09:08:48;;;;;;;17.38;9.60;;;;;;;;;;5087784;28;20502;-63
2022/03/05 09:11:14;;;;;;;17.60;10.23;;;;;;;;;;5085221;28;20461;-62
2022/03/05 09:13:40;;;;;;;18.77;10.05;;;;;;;;;;5069731;28;20044;-62
2022/03/05 09:16:06;;;;;;;21.92;11.07;;;;;;;;;;5087483;28;20040;-63
2022/03/05 09:18:33;;;;;;;23.20;10.30;;;;;;;;;;5085500;28;20104;-62
2022/03/05 09:20:59;;;;;;;20.05;11.30;;;;;;;;;;5086696;28;20036;-63
2022/03/05 09:23:25;;;;;;;22.17;11.20;;;;;;;;;;5088110;28;20081;-63
2022/03/05 09:25:51;;;;;;;21.15;11.38;;;;;;;;;;5084571;28;20046;-63
2022/03/05 09:28:18;;;;;;;21.52;12.00;;;;;;;;;;5087449;28;20121;-63
2022/03/05 09:30:44;;;;;;;21.30;10.77;;;;;;;;;;5085294;28;20082;-62
2022/03/05 09:33:11;;;;;;;21.42;11.05;;;;;;;;;;5086138;28;20040;-63
2022/03/05 09:35:38;;;;;;;23.45;11.40;;;;;;;;;;5086660;28;20092;-63
2022/03/05 09:38:05;;;;;;;21.95;10.82;;;;;;;;;;5087638;28;20065;-63
2022/03/05 09:40:31;;;;;;;24.13;10.93;;;;;;;;;;5078284;28;20440;-63
2022/03/05 09:43:00;;;;;;;21.92;11.40;;;;;;;;;;5087040;28;20044;-62
2022/03/05 09:45:26;;;;;;;22.02;10.70;;;;;;;;;;5066197;28;20036;-63
2022/03/05 09:47:52;;;;;;;21.48;11.52;;;;;;;;;;5086255;28;20044;-62
2022/03/05 09:50:18;;;;;;;21.65;11.93;;;;;;;;;;5084254;28;20101;-62
2022/03/05 09:52:44;;;;;;;25.75;11.93;;;;;;;;;;5080374;28;20455;-62
2022/03/05 09:55:10;;;;;;;21.73;11.75;;;;;;;;;;5084231;28;20498;-62
2022/03/05 09:57:36;;;;;;;23.05;12.27;;;;;;;;;;5085158;28;20101;-62
2022/03/05 10:00:04;;;;;;;21.67;12.52;;;;;;;;;;5069524;28;20052;-63
2022/03/05 10:02:30;;;;;;;27.08;11.57;;;;;;;;;;5085633;28;20399;-62
2022/03/05 10:05:15;;;;;;;24.05;12.48;;;;;;;;;;5084686;28;20053;-63
2022/03/05 10:07:59;;;;;;;24.92;12.73;;;;;;;;;;5081639;28;20101;-63
2022/03/05 10:10:25;;;;;;;22.98;12.45;;;;;;;;;;5085805;28;20040;-62
2022/03/05 10:12:51;;;;;;;20.90;11.27;;;;;;;;;;5084619;28;20429;-63
2022/03/05 10:15:17;;;;;;;22.48;12.13;;;;;;;;;;5086475;28;20044;-63
2022/03/05 10:18:02;;;;;;;22.83;12.07;;;;;;;;;;5085915;28;20356;-63
2022/03/05 10:20:29;;;;;;;29.60;13.10;;;;;;;;;;5078513;28;20123;-63
2022/03/05 10:22:56;;;;;;;24.45;12.20;;;;;;;;;;5085568;28;20127;-63
2022/03/05 10:25:37;;;;;;;23.10;11.77;;;;;;;;;;5084540;28;20048;-63
2022/03/05 10:28:06;;;;;;;24.17;12.02;;;;;;;;;;5067994;28;20054;-63
2022/03/05 10:30:34;;;;;;;23.27;13.50;;;;;;;;;;5067275;28;20040;-62
2022/03/05 10:33:01;;;;;;;22.98;12.52;;;;;;;;;;5066292;28;20040;-63
2022/03/05 10:35:27;;;;;;;22.88;13.27;;;;;;;;;;5087611;28;20044;-62
2022/03/05 10:37:54;;;;;;;23.38;12.60;;;;;;;;;;5085894;28;20677;-63
2022/03/05 10:40:30;;;;;;;24.45;13.13;;;;;;;;;;5066453;28;20532;-63
2022/03/05 10:43:01;;;;;;;24.58;13.20;;;;;;;;;;5069518;28;20049;-63
2022/03/05 10:45:29;;;;;;;26.23;13.55;;;;;;;;;;5083336;28;20032;-63
2022/03/05 10:47:56;;;;;;;24.48;12.65;;;;;;;;;;5098871;28;20044;-63
2022/03/05 10:50:24;;;;;;;29.70;13.20;;;;;;;;;;5085646;28;20405;-62
2022/03/05 10:52:53;;;;;;;26.30;13.32;;;;;;;;;;5083910;28;20113;-63
2022/03/05 10:55:20;;;;;;;22.90;13.25;;;;;;;;;;5085140;28;20119;-63
2022/03/05 10:57:57;;;;;;;25.55;11.95;;;;;;;;;;5085474;28;20090;-63
2022/03/05 11:00:23;;;;;;;22.88;12.43;;;;;;;;;;5085662;28;20047;-62
2022/03/05 11:02:50;;;;;;;22.55;12.68;;;;;;;;;;5086385;28;20130;-63
2022/03/05 11:05:18;;;;;;;24.42;12.90;;;;;;;;;;5079528;28;20061;-63
2022/03/05 11:07:45;;;;;;;25.58;13.73;;;;;;;;;;5086965;28;20498;-62
2022/03/05 11:10:11;;;;;;;20.83;12.77;;;;;;;;;;5086197;28;20044;-62
2022/03/05 11:12:39;;;;;;;20.25;12.15;;;;;;;;;;5083181;28;20040;-63
2022/03/05 11:15:08;;;;;;;23.30;12.80;;;;;;;;;;5085953;28;20480;-63
2022/03/05 11:17:35;;;;;;;22.13;13.15;;;;;;;;;;5086193;28;20097;-63
2022/03/05 11:20:02;;;;;;;25.65;13.45;;;;;;;;;;5086018;28;20165;-63
2022/03/05 11:22:28;;;;;;;24.83;13.27;;;;;;;;;;5085659;28;20083;-63
2022/03/05 11:24:55;;;;;;;20.35;12.50;;;;;;;;;;5066766;28;20078;-63
2022/03/05 11:27:21;;;;;;;21.65;13.95;;;;;;;;;;5070680;28;20127;-63
2022/03/05 11:29:53;;;;;;;23.88;14.18;;;;;;;;;;5090124;28;20072;-64
2022/03/05 11:32:20;;;;;;;21.30;13.68;;;;;;;;;;5096407;28;20483;-64
2022/03/05 11:34:47;;;;;;;19.08;12.63;;;;;;;;;;5070539;28;20487;-64
2022/03/05 11:37:16;;;;;;;25.17;14.40;;;;;;;;;;5083266;28;20070;-64
2022/03/05 11:39:42;;;;;;;24.02;13.60;;;;;;;;;;5068119;28;20036;-64
2022/03/05 11:42:09;;;;;;;21.77;13.32;;;;;;;;;;5071621;28;20044;-64
2022/03/05 11:44:36;;;;;;;22.88;13.55;;;;;;;;;;5069331;28;20044;-64
2022/03/05 11:47:21;;;;;;;21.23;13.50;;;;;;;;;;5088204;28;20439;-64
2022/03/05 11:50:02;;;;;;;18.67;13.32;;;;;;;;;;5089802;28;20052;-64
2022/03/05 11:52:39;;;;;;;21.48;13.55;;;;;;;;;;5086377;28;20433;-64
2022/03/05 11:55:11;;;;;;;22.52;14.43;;;;;;;;;;5087935;28;20036;-64
2022/03/05 11:57:39;;;;;;;20.73;13.65;;;;;;;;;;5066888;28;20040;-64
2022/03/05 12:00:06;;;;;;;22.63;15.00;;;;;;;;;;5067081;28;20050;-64
2022/03/05 12:02:38;;;;;;;21.77;13.68;;;;;;;;;;5071156;28;20109;-64
2022/03/05 12:05:04;;;;;;;23.05;14.38;;;;;;;;;;5082538;28;20126;-64
2022/03/05 12:07:38;;;;;;;18.45;13.80;;;;;;;;;;5070931;28;20066;-64
2022/03/05 12:10:12;;;;;;;21.30;14.07;;;;;;;;;;5088140;28;20355;-64
2022/03/05 12:12:52;;;;;;;20.85;13.93;;;;;;;;;;5087145;28;20047;-64
2022/03/05 12:15:18;;;;;;;19.77;14.00;;;;;;;;;;5063916;28;20131;-64
2022/03/05 12:17:46;;;;;;;20.33;13.45;;;;;;;;;;5069848;28;20487;-64
2022/03/05 12:20:16;;;;;;;18.55;12.93;;;;;;;;;;5070459;28;20492;-64
2022/03/05 12:22:49;;;;;;;20.85;13.77;;;;;;;;;;5087357;28;20040;-64
2022/03/05 12:25:15;;;;;;;18.30;13.43;;;;;;;;;;5091824;28;20048;-64
2022/03/05 12:27:50;;;;;;;20.80;14.38;;;;;;;;;;5088367;28;20371;-64
2022/03/05 12:30:16;;;;;;;19.20;12.88;;;;;;;;;;5069509;28;20055;-64
2022/03/05 12:32:45;;;;;;;19.00;13.25;;;;;;;;;;5081443;28;20093;-64
2022/03/05 12:35:12;;;;;;;21.38;13.70;;;;;;;;;;5088006;28;20067;-64
2022/03/05 12:37:38;;;;;;;18.85;13.10;;;;;;;;;;5084596;28;20041;-64
2022/03/05 12:40:05;;;;;;;22.45;14.25;;;;;;;;;;5087966;28;20097;-64
2022/03/05 12:42:38;;;;;;;19.42;14.68;;;;;;;;;;5089162;28;20046;-64
2022/03/05 12:45:04;;;;;;;21.48;14.93;;;;;;;;;;5077986;28;20040;-64
2022/03/05 12:47:32;;;;;;;18.90;13.93;;;;;;;;;;5071132;28;20479;-64
2022/03/05 12:49:58;;;;;;;18.98;13.65;;;;;;;;;;5069874;28;20075;-64
2022/03/05 12:52:24;;;;;;;19.30;13.43;;;;;;;;;;5085847;28;20440;-64
2022/03/05 12:54:54;;;;;;;21.17;14.55;;;;;;;;;;5068977;28;20092;-64
2022/03/05 12:57:21;;;;;;;19.40;13.85;;;;;;;;;;5084111;28;20059;-64
2022/03/05 12:59:47;;;;;;;18.20;13.43;;;;;;;;;;5087949;28;20055;-64
2022/03/05 13:02:13;;;;;;;19.73;14.52;;;;;;;;;;5088384;28;20059;-64
2022/03/05 13:04:39;;;;;;;23.05;15.80;;;;;;;;;;5084396;28;20055;-64
2022/03/05 13:07:06;;;;;;;17.85;13.43;;;;;;;;;;5088833;28;20076;-64
2022/03/05 13:09:33;;;;;;;19.85;13.60;;;;;;;;;;5069297;28;20055;-64
2022/03/05 13:11:59;;;;;;;20.27;13.68;;;;;;;;;;5084742;28;20040;-64
2022/03/05 13:14:25;;;;;;;18.40;12.95;;;;;;;;;;5087305;28;20043;-64
2022/03/05 13:16:52;;;;;;;19.20;13.32;;;;;;;;;;5070641;28;20040;-64
2022/03/05 13:19:19;;;;;;;18.85;12.93;;;;;;;;;;5067980;28;20042;-64
2022/03/05 13:21:46;;;;;;;19.48;13.10;;;;;;;;;;5087435;28;20085;-64
2022/03/05 13:24:13;;;;;;;19.40;13.07;;;;;;;;;;5066916;28;20048;-64
2022/03/05 13:26:42;;;;;;;19.58;13.20;;;;;;;;;;5087103;28;20384;-64
2022/03/05 13:29:08;;;;;;;17.52;12.52;;;;;;;;;;5081505;28;20039;-64
2022/03/05 13:31:34;;;;;;;19.67;13.82;;;;;;;;;;5086630;28;20047;-64
2022/03/05 13:34:01;;;;;;;20.10;13.38;;;;;;;;;;5086816;28;20050;-64
2022/03/05 13:36:29;;;;;;;18.60;12.90;;;;;;;;;;5088330;28;20479;-64
2022/03/05 13:39:07;;;;;;;19.92;13.25;;;;;;;;;;5084300;28;20525;-64
2022/03/05 13:41:33;;;;;;;19.48;12.85;;;;;;;;;;5081913;28;20056;-64
2022/03/05 13:44:01;;;;;;;18.80;12.68;;;;;;;;;;5084807;28;20218;-64
2022/03/05 13:46:28;;;;;;;17.38;12.38;;;;;;;;;;5069320;28;20075;-64
2022/03/05 13:48:56;;;;;;;20.30;13.25;;;;;;;;;;5068837;28;20071;-64
2022/03/05 13:51:25;;;;;;;22.88;13.32;;;;;;;;;;5084929;28;20052;-64
2022/03/05 13:53:55;;;;;;;19.67;13.35;;;;;;;;;;5051636;28;20044;-64
2022/03/05 13:56:22;;;;;;;20.02;12.90;;;;;;;;;;5066529;28;20125;-64
2022/03/05 13:58:56;;;;;;;20.50;13.30;;;;;;;;;;5086661;28;20041;-64
2022/03/05 14:01:30;;;;;;;18.90;13.32;;;;;;;;;;5081752;28;20154;-64
2022/03/05 14:04:12;;;;;;;18.60;12.15;;;;;;;;;;5080770;28;20051;-63
2022/03/05 14:06:56;;;;;;;22.33;13.43;;;;;;;;;;5082594;28;20380;-64
2022/03/05 14:09:22;;;;;;;20.40;12.32;;;;;;;;;;5084426;28;20063;-64
2022/03/05 14:12:00;;;;;;;23.08;12.75;;;;;;;;;;5084479;28;20630;-64
2022/03/05 14:14:37;;;;;;;20.48;13.73;;;;;;;;;;5077382;28;20033;-64
2022/03/05 14:17:03;;;;;;;18.65;12.45;;;;;;;;;;5085989;28;20032;-64
2022/03/05 14:19:31;;;;;;;18.02;11.80;;;;;;;;;;5066020;28;20376;-64
2022/03/05 14:22:04;;;;;;;19.70;13.70;;;;;;;;;;5086608;28;20082;-64
2022/03/05 14:24:30;;;;;;;19.45;14.13;;;;;;;;;;5069386;28;20067;-64
2022/03/05 14:26:56;;;;;;;23.83;14.38;;;;;;;;;;5086288;28;20040;-64
2022/03/05 14:29:23;;;;;;;19.70;13.75;;;;;;;;;;5067761;28;20512;-64